sensor_id;sensor_type;location;lat;lon;timestamp;P1;durP1;ratioP1;P2;durP2;ratioP2
47153;SDS011;32907;41.412;2.164;2023-03-17T00:01:21;9.15;;;4.80;;
47153;SDS011;32907;41.412;2.164;2023-03-17T00:03:50;12.38;;;4.75;;
47153;SDS011;32907;41.412;2.164;2023-03-17T00:06:20;13.45;;;4.18;;
47153;SDS011;32907;41.412;2.164;2023-03-17T00:11:24;12.75;;;4.32;;
47153;SDS011;32907;41.412;2.164;2023-03-17T00:13:53;7.68;;;4.03;;
47153;SDS011;32907;41.412;2.164;2023-03-17T00:16:27;9.68;;;4.53;;
47153;SDS011;32907;41.412;2.164;2023-03-17T00:18:59;9.27;;;4.18;;
47153;SDS011;32907;41.412;2.164;2023-03-17T00:21:27;8.25;;;4.03;;
47153;SDS011;32907;41.412;2.164;2023-03-17T00:23:57;11.85;;;4.30;;
47153;SDS011;32907;41.412;2.164;2023-03-17T00:26:26;9.48;;;4.40;;
47153;SDS011;32907;41.412;2.164;2023-03-17T00:28:54;9.00;;;4.10;;
47153;SDS011;32907;41.412;2.164;2023-03-17T00:31:23;14.50;;;5.03;;
47153;SDS011;32907;41.412;2.164;2023-03-17T00:33:52;8.85;;;4.30;;
47153;SDS011;32907;41.412;2.164;2023-03-17T00:36:30;12.40;;;4.82;;
47153;SDS011;32907;41.412;2.164;2023-03-17T00:39:02;10.75;;;5.00;;
47153;SDS011;32907;41.412;2.164;2023-03-17T00:41:39;10.10;;;3.92;;
47153;SDS011;32907;41.412;2.164;2023-03-17T00:44:07;11.10;;;4.40;;
47153;SDS011;32907;41.412;2.164;2023-03-17T00:46:35;8.73;;;3.85;;
47153;SDS011;32907;41.412;2.164;2023-03-17T00:49:13;8.50;;;4.00;;
47153;SDS011;32907;41.412;2.164;2023-03-17T00:51:42;10.68;;;4.18;;
47153;SDS011;32907;41.412;2.164;2023-03-17T00:54:11;14.02;;;3.65;;
47153;SDS011;32907;41.412;2.164;2023-03-17T00:56:42;8.45;;;3.40;;
47153;SDS011;32907;41.412;2.164;2023-03-17T00:59:14;8.32;;;3.60;;
47153;SDS011;32907;41.412;2.164;2023-03-17T01:01:50;8.07;;;3.42;;
47153;SDS011;32907;41.412;2.164;2023-03-17T01:04:20;8.13;;;3.72;;
47153;SDS011;32907;41.412;2.164;2023-03-17T01:06:49;9.00;;;3.60;;
47153;SDS011;32907;41.412;2.164;2023-03-17T01:09:18;13.02;;;4.32;;
47153;SDS011;32907;41.412;2.164;2023-03-17T01:11:50;9.13;;;3.33;;
47153;SDS011;32907;41.412;2.164;2023-03-17T01:14:18;9.25;;;3.67;;
47153;SDS011;32907;41.412;2.164;2023-03-17T01:16:46;9.48;;;3.00;;
47153;SDS011;32907;41.412;2.164;2023-03-17T01:19:15;6.57;;;3.28;;
47153;SDS011;32907;41.412;2.164;2023-03-17T01:21:43;8.55;;;3.45;;
47153;SDS011;32907;41.412;2.164;2023-03-17T01:24:16;8.32;;;3.38;;
47153;SDS011;32907;41.412;2.164;2023-03-17T01:26:44;7.28;;;3.00;;
47153;SDS011;32907;41.412;2.164;2023-03-17T01:29:12;6.53;;;3.30;;
47153;SDS011;32907;41.412;2.164;2023-03-17T01:31:40;9.32;;;3.33;;
47153;SDS011;32907;41.412;2.164;2023-03-17T01:34:10;14.82;;;3.92;;
47153;SDS011;32907;41.412;2.164;2023-03-17T01:36:39;9.68;;;3.45;;
47153;SDS011;32907;41.412;2.164;2023-03-17T01:39:07;8.93;;;3.50;;
47153;SDS011;32907;41.412;2.164;2023-03-17T01:41:35;13.60;;;4.57;;
47153;SDS011;32907;41.412;2.164;2023-03-17T01:44:04;7.72;;;3.47;;
47153;SDS011;32907;41.412;2.164;2023-03-17T01:46:34;9.25;;;3.25;;
47153;SDS011;32907;41.412;2.164;2023-03-17T01:54:57;11.32;;;3.65;;
47153;SDS011;32907;41.412;2.164;2023-03-17T01:57:12;9.68;;;3.63;;
47153;SDS011;32907;41.412;2.164;2023-03-17T02:02:42;8.10;;;3.03;;
47153;SDS011;32907;41.412;2.164;2023-03-17T02:05:13;11.10;;;3.67;;
47153;SDS011;32907;41.412;2.164;2023-03-17T02:07:44;9.45;;;3.08;;
47153;SDS011;32907;41.412;2.164;2023-03-17T02:10:13;8.15;;;2.70;;
47153;SDS011;32907;41.412;2.164;2023-03-17T02:12:44;8.45;;;3.03;;
47153;SDS011;32907;41.412;2.164;2023-03-17T02:15:17;9.55;;;2.80;;
47153;SDS011;32907;41.412;2.164;2023-03-17T02:17:45;7.65;;;2.85;;
47153;SDS011;32907;41.412;2.164;2023-03-17T02:22:48;9.82;;;3.38;;
47153;SDS011;32907;41.412;2.164;2023-03-17T02:25:22;7.82;;;2.83;;
47153;SDS011;32907;41.412;2.164;2023-03-17T02:27:54;11.10;;;3.38;;
47153;SDS011;32907;41.412;2.164;2023-03-17T02:30:26;10.73;;;3.22;;
47153;SDS011;32907;41.412;2.164;2023-03-17T02:32:55;10.93;;;3.03;;
47153;SDS011;32907;41.412;2.164;2023-03-17T02:35:23;9.13;;;2.97;;
47153;SDS011;32907;41.412;2.164;2023-03-17T02:37:51;12.07;;;3.42;;
47153;SDS011;32907;41.412;2.164;2023-03-17T02:40:20;11.07;;;3.58;;
47153;SDS011;32907;41.412;2.164;2023-03-17T02:42:49;8.20;;;3.00;;
47153;SDS011;32907;41.412;2.164;2023-03-17T02:45:17;10.57;;;3.25;;
47153;SDS011;32907;41.412;2.164;2023-03-17T02:47:45;12.25;;;3.13;;
47153;SDS011;32907;41.412;2.164;2023-03-17T02:50:19;6.20;;;2.55;;
47153;SDS011;32907;41.412;2.164;2023-03-17T02:52:49;13.32;;;3.45;;
47153;SDS011;32907;41.412;2.164;2023-03-17T02:55:18;9.10;;;2.88;;
47153;SDS011;32907;41.412;2.164;2023-03-17T02:57:46;7.18;;;2.88;;
47153;SDS011;32907;41.412;2.164;2023-03-17T03:00:14;11.18;;;2.80;;
47153;SDS011;32907;41.412;2.164;2023-03-17T03:02:42;8.73;;;2.55;;
47153;SDS011;32907;41.412;2.164;2023-03-17T03:05:10;9.25;;;3.13;;
47153;SDS011;32907;41.412;2.164;2023-03-17T03:07:38;9.20;;;2.60;;
47153;SDS011;32907;41.412;2.164;2023-03-17T03:10:06;9.07;;;2.42;;
47153;SDS011;32907;41.412;2.164;2023-03-17T03:12:35;11.10;;;3.50;;
47153;SDS011;32907;41.412;2.164;2023-03-17T03:15:03;8.77;;;2.78;;
47153;SDS011;32907;41.412;2.164;2023-03-17T03:17:35;10.43;;;2.70;;
47153;SDS011;32907;41.412;2.164;2023-03-17T03:20:03;9.27;;;2.70;;
47153;SDS011;32907;41.412;2.164;2023-03-17T03:22:32;8.13;;;2.70;;
47153;SDS011;32907;41.412;2.164;2023-03-17T03:25:00;6.25;;;2.65;;
47153;SDS011;32907;41.412;2.164;2023-03-17T03:27:27;7.65;;;3.20;;
47153;SDS011;32907;41.412;2.164;2023-03-17T03:29:57;9.10;;;2.92;;
47153;SDS011;32907;41.412;2.164;2023-03-17T03:32:25;10.65;;;2.80;;
47153;SDS011;32907;41.412;2.164;2023-03-17T03:34:54;7.43;;;2.53;;
47153;SDS011;32907;41.412;2.164;2023-03-17T03:37:23;7.25;;;2.95;;
47153;SDS011;32907;41.412;2.164;2023-03-17T03:39:51;9.70;;;2.90;;
47153;SDS011;32907;41.412;2.164;2023-03-17T03:42:19;6.53;;;2.70;;
47153;SDS011;32907;41.412;2.164;2023-03-17T03:44:47;7.40;;;2.35;;
47153;SDS011;32907;41.412;2.164;2023-03-17T03:47:15;8.90;;;2.70;;
47153;SDS011;32907;41.412;2.164;2023-03-17T03:49:42;8.65;;;3.08;;
47153;SDS011;32907;41.412;2.164;2023-03-17T03:52:10;8.60;;;2.67;;
47153;SDS011;32907;41.412;2.164;2023-03-17T03:54:38;8.45;;;2.40;;
47153;SDS011;32907;41.412;2.164;2023-03-17T03:57:06;8.52;;;2.58;;
47153;SDS011;32907;41.412;2.164;2023-03-17T03:59:34;9.13;;;2.40;;
47153;SDS011;32907;41.412;2.164;2023-03-17T04:02:02;9.25;;;2.40;;
47153;SDS011;32907;41.412;2.164;2023-03-17T04:04:31;10.02;;;2.78;;
47153;SDS011;32907;41.412;2.164;2023-03-17T04:06:59;7.30;;;2.33;;
47153;SDS011;32907;41.412;2.164;2023-03-17T04:09:27;9.90;;;2.60;;
47153;SDS011;32907;41.412;2.164;2023-03-17T04:11:55;9.02;;;2.80;;
47153;SDS011;32907;41.412;2.164;2023-03-17T04:14:23;8.50;;;2.53;;
47153;SDS011;32907;41.412;2.164;2023-03-17T04:16:51;9.10;;;2.42;;
47153;SDS011;32907;41.412;2.164;2023-03-17T04:19:19;8.30;;;2.75;;
47153;SDS011;32907;41.412;2.164;2023-03-17T04:21:48;8.43;;;2.53;;
47153;SDS011;32907;41.412;2.164;2023-03-17T04:24:16;9.95;;;2.58;;
47153;SDS011;32907;41.412;2.164;2023-03-17T04:26:44;9.05;;;2.40;;
47153;SDS011;32907;41.412;2.164;2023-03-17T04:29:12;8.98;;;2.80;;
47153;SDS011;32907;41.412;2.164;2023-03-17T04:31:43;6.45;;;1.95;;
47153;SDS011;32907;41.412;2.164;2023-03-17T04:34:15;8.18;;;2.15;;
47153;SDS011;32907;41.412;2.164;2023-03-17T04:36:45;5.25;;;2.13;;
47153;SDS011;32907;41.412;2.164;2023-03-17T04:39:15;9.07;;;2.63;;
47153;SDS011;32907;41.412;2.164;2023-03-17T04:41:44;7.45;;;2.20;;
47153;SDS011;32907;41.412;2.164;2023-03-17T04:44:14;7.15;;;2.20;;
47153;SDS011;32907;41.412;2.164;2023-03-17T04:46:42;6.43;;;2.13;;
47153;SDS011;32907;41.412;2.164;2023-03-17T04:49:10;7.53;;;3.25;;
47153;SDS011;32907;41.412;2.164;2023-03-17T04:51:39;9.60;;;2.30;;
47153;SDS011;32907;41.412;2.164;2023-03-17T04:54:07;7.15;;;2.17;;
47153;SDS011;32907;41.412;2.164;2023-03-17T04:56:35;8.68;;;1.80;;
47153;SDS011;32907;41.412;2.164;2023-03-17T04:59:03;9.25;;;2.30;;
47153;SDS011;32907;41.412;2.164;2023-03-17T05:01:32;7.45;;;2.22;;
47153;SDS011;32907;41.412;2.164;2023-03-17T05:04:00;7.30;;;2.05;;
47153;SDS011;32907;41.412;2.164;2023-03-17T05:06:27;7.55;;;2.28;;
47153;SDS011;32907;41.412;2.164;2023-03-17T05:08:55;7.03;;;1.88;;
47153;SDS011;32907;41.412;2.164;2023-03-17T05:11:23;6.68;;;1.98;;
47153;SDS011;32907;41.412;2.164;2023-03-17T05:13:52;8.65;;;2.13;;
47153;SDS011;32907;41.412;2.164;2023-03-17T05:16:19;8.82;;;2.67;;
47153;SDS011;32907;41.412;2.164;2023-03-17T05:18:48;8.75;;;2.20;;
47153;SDS011;32907;41.412;2.164;2023-03-17T05:21:16;5.95;;;2.15;;
47153;SDS011;32907;41.412;2.164;2023-03-17T05:23:44;8.43;;;2.53;;
47153;SDS011;32907;41.412;2.164;2023-03-17T05:26:11;8.85;;;2.13;;
47153;SDS011;32907;41.412;2.164;2023-03-17T05:28:39;9.15;;;2.50;;
47153;SDS011;32907;41.412;2.164;2023-03-17T05:31:07;7.30;;;2.10;;
47153;SDS011;32907;41.412;2.164;2023-03-17T05:33:37;10.15;;;2.42;;
47153;SDS011;32907;41.412;2.164;2023-03-17T05:36:05;8.48;;;2.10;;
47153;SDS011;32907;41.412;2.164;2023-03-17T05:38:34;10.25;;;2.83;;
47153;SDS011;32907;41.412;2.164;2023-03-17T05:41:02;7.88;;;3.60;;
47153;SDS011;32907;41.412;2.164;2023-03-17T05:43:30;9.38;;;4.05;;
47153;SDS011;32907;41.412;2.164;2023-03-17T05:45:58;7.85;;;3.78;;
47153;SDS011;32907;41.412;2.164;2023-03-17T05:48:26;11.38;;;3.83;;
47153;SDS011;32907;41.412;2.164;2023-03-17T05:50:54;10.07;;;2.72;;
47153;SDS011;32907;41.412;2.164;2023-03-17T05:53:22;8.23;;;2.72;;
47153;SDS011;32907;41.412;2.164;2023-03-17T05:55:51;7.60;;;2.42;;
47153;SDS011;32907;41.412;2.164;2023-03-17T05:58:20;9.20;;;2.55;;
47153;SDS011;32907;41.412;2.164;2023-03-17T06:00:48;5.88;;;2.13;;
47153;SDS011;32907;41.412;2.164;2023-03-17T06:03:16;7.78;;;2.28;;
47153;SDS011;32907;41.412;2.164;2023-03-17T06:05:44;9.80;;;3.53;;
47153;SDS011;32907;41.412;2.164;2023-03-17T06:08:12;9.07;;;3.08;;
47153;SDS011;32907;41.412;2.164;2023-03-17T06:10:41;7.90;;;2.60;;
47153;SDS011;32907;41.412;2.164;2023-03-17T06:13:09;9.02;;;3.88;;
47153;SDS011;32907;41.412;2.164;2023-03-17T06:15:38;10.48;;;3.95;;
47153;SDS011;32907;41.412;2.164;2023-03-17T06:18:06;20.70;;;7.82;;
47153;SDS011;32907;41.412;2.164;2023-03-17T06:20:34;25.27;;;7.78;;
47153;SDS011;32907;41.412;2.164;2023-03-17T06:23:02;32.92;;;8.73;;
47153;SDS011;32907;41.412;2.164;2023-03-17T06:25:32;25.15;;;8.02;;
47153;SDS011;32907;41.412;2.164;2023-03-17T06:28:01;21.45;;;7.28;;
47153;SDS011;32907;41.412;2.164;2023-03-17T06:30:32;20.58;;;7.30;;
47153;SDS011;32907;41.412;2.164;2023-03-17T06:33:01;14.00;;;6.40;;
47153;SDS011;32907;41.412;2.164;2023-03-17T06:35:30;15.77;;;7.07;;
47153;SDS011;32907;41.412;2.164;2023-03-17T06:38:00;13.43;;;6.35;;
47153;SDS011;32907;41.412;2.164;2023-03-17T06:40:28;14.20;;;6.18;;
47153;SDS011;32907;41.412;2.164;2023-03-17T06:42:57;16.48;;;5.00;;
47153;SDS011;32907;41.412;2.164;2023-03-17T06:45:27;10.10;;;4.10;;
47153;SDS011;32907;41.412;2.164;2023-03-17T06:47:56;10.35;;;4.32;;
47153;SDS011;32907;41.412;2.164;2023-03-17T06:50:24;9.73;;;3.60;;
47153;SDS011;32907;41.412;2.164;2023-03-17T06:52:52;9.30;;;2.80;;
47153;SDS011;32907;41.412;2.164;2023-03-17T06:55:20;14.10;;;3.65;;
47153;SDS011;32907;41.412;2.164;2023-03-17T06:57:48;9.52;;;3.10;;
47153;SDS011;32907;41.412;2.164;2023-03-17T07:00:18;8.45;;;2.60;;
47153;SDS011;32907;41.412;2.164;2023-03-17T07:02:47;10.70;;;2.67;;
47153;SDS011;32907;41.412;2.164;2023-03-17T07:05:16;10.88;;;3.15;;
47153;SDS011;32907;41.412;2.164;2023-03-17T07:07:44;9.68;;;2.30;;
47153;SDS011;32907;41.412;2.164;2023-03-17T07:10:12;14.45;;;4.13;;
47153;SDS011;32907;41.412;2.164;2023-03-17T07:12:42;10.60;;;4.20;;
47153;SDS011;32907;41.412;2.164;2023-03-17T07:15:11;7.85;;;3.45;;
47153;SDS011;32907;41.412;2.164;2023-03-17T07:17:39;8.48;;;2.90;;
47153;SDS011;32907;41.412;2.164;2023-03-17T07:20:08;10.38;;;3.10;;
47153;SDS011;32907;41.412;2.164;2023-03-17T07:22:40;9.32;;;2.63;;
47153;SDS011;32907;41.412;2.164;2023-03-17T07:25:08;8.68;;;2.60;;
47153;SDS011;32907;41.412;2.164;2023-03-17T07:27:37;8.57;;;3.58;;
47153;SDS011;32907;41.412;2.164;2023-03-17T07:30:06;11.15;;;2.90;;
47153;SDS011;32907;41.412;2.164;2023-03-17T07:32:35;8.70;;;3.28;;
47153;SDS011;32907;41.412;2.164;2023-03-17T07:35:04;10.75;;;4.00;;
47153;SDS011;32907;41.412;2.164;2023-03-17T07:37:33;12.07;;;4.53;;
47153;SDS011;32907;41.412;2.164;2023-03-17T07:40:01;12.85;;;4.55;;
47153;SDS011;32907;41.412;2.164;2023-03-17T07:42:30;12.73;;;5.38;;
47153;SDS011;32907;41.412;2.164;2023-03-17T07:44:58;12.02;;;5.35;;
47153;SDS011;32907;41.412;2.164;2023-03-17T07:47:26;15.65;;;5.65;;
47153;SDS011;32907;41.412;2.164;2023-03-17T07:49:54;15.35;;;5.55;;
47153;SDS011;32907;41.412;2.164;2023-03-17T07:52:22;9.77;;;4.60;;
47153;SDS011;32907;41.412;2.164;2023-03-17T07:54:50;11.30;;;4.30;;
47153;SDS011;32907;41.412;2.164;2023-03-17T07:57:21;10.90;;;4.00;;
47153;SDS011;32907;41.412;2.164;2023-03-17T07:59:48;11.80;;;3.83;;
47153;SDS011;32907;41.412;2.164;2023-03-17T08:02:17;13.00;;;4.45;;
47153;SDS011;32907;41.412;2.164;2023-03-17T08:04:46;10.70;;;3.55;;
47153;SDS011;32907;41.412;2.164;2023-03-17T08:07:14;9.80;;;3.40;;
47153;SDS011;32907;41.412;2.164;2023-03-17T08:09:43;10.38;;;3.53;;
47153;SDS011;32907;41.412;2.164;2023-03-17T08:12:11;8.32;;;3.55;;
47153;SDS011;32907;41.412;2.164;2023-03-17T08:14:39;11.38;;;3.50;;
47153;SDS011;32907;41.412;2.164;2023-03-17T08:17:07;8.38;;;3.15;;
47153;SDS011;32907;41.412;2.164;2023-03-17T08:19:35;11.90;;;3.75;;
47153;SDS011;32907;41.412;2.164;2023-03-17T08:22:03;10.43;;;3.30;;
47153;SDS011;32907;41.412;2.164;2023-03-17T08:24:32;11.07;;;4.00;;
47153;SDS011;32907;41.412;2.164;2023-03-17T08:27:01;8.50;;;3.72;;
47153;SDS011;32907;41.412;2.164;2023-03-17T08:29:30;13.45;;;3.45;;
47153;SDS011;32907;41.412;2.164;2023-03-17T08:31:57;14.90;;;4.15;;
47153;SDS011;32907;41.412;2.164;2023-03-17T08:34:27;15.32;;;3.40;;
47153;SDS011;32907;41.412;2.164;2023-03-17T08:36:55;15.70;;;3.40;;
47153;SDS011;32907;41.412;2.164;2023-03-17T08:39:23;9.73;;;2.92;;
47153;SDS011;32907;41.412;2.164;2023-03-17T08:41:51;12.30;;;2.97;;
47153;SDS011;32907;41.412;2.164;2023-03-17T08:44:20;13.63;;;3.38;;
47153;SDS011;32907;41.412;2.164;2023-03-17T08:46:48;12.43;;;3.63;;
47153;SDS011;32907;41.412;2.164;2023-03-17T08:49:17;13.07;;;3.55;;
47153;SDS011;32907;41.412;2.164;2023-03-17T08:51:45;15.43;;;4.57;;
47153;SDS011;32907;41.412;2.164;2023-03-17T08:54:13;12.50;;;4.55;;
47153;SDS011;32907;41.412;2.164;2023-03-17T08:56:41;17.65;;;4.80;;
47153;SDS011;32907;41.412;2.164;2023-03-17T08:59:11;12.27;;;4.00;;
47153;SDS011;32907;41.412;2.164;2023-03-17T09:01:42;11.02;;;3.33;;
47153;SDS011;32907;41.412;2.164;2023-03-17T09:04:13;10.32;;;3.28;;
47153;SDS011;32907;41.412;2.164;2023-03-17T09:06:42;11.88;;;3.92;;
47153;SDS011;32907;41.412;2.164;2023-03-17T09:09:28;11.68;;;3.30;;
47153;SDS011;32907;41.412;2.164;2023-03-17T09:11:57;11.00;;;3.65;;
47153;SDS011;32907;41.412;2.164;2023-03-17T09:14:25;11.10;;;2.55;;
47153;SDS011;32907;41.412;2.164;2023-03-17T09:16:54;10.45;;;3.40;;
47153;SDS011;32907;41.412;2.164;2023-03-17T09:19:23;11.23;;;4.00;;
47153;SDS011;32907;41.412;2.164;2023-03-17T09:21:51;11.32;;;3.88;;
47153;SDS011;32907;41.412;2.164;2023-03-17T09:24:22;12.85;;;3.92;;
47153;SDS011;32907;41.412;2.164;2023-03-17T09:26:51;10.48;;;4.22;;
47153;SDS011;32907;41.412;2.164;2023-03-17T09:29:19;10.23;;;4.47;;
47153;SDS011;32907;41.412;2.164;2023-03-17T09:31:47;17.95;;;4.78;;
47153;SDS011;32907;41.412;2.164;2023-03-17T09:34:15;13.38;;;5.20;;
47153;SDS011;32907;41.412;2.164;2023-03-17T09:36:43;8.82;;;4.45;;
47153;SDS011;32907;41.412;2.164;2023-03-17T09:39:11;12.82;;;5.93;;
47153;SDS011;32907;41.412;2.164;2023-03-17T09:49:37;12.73;;;4.70;;
47153;SDS011;32907;41.412;2.164;2023-03-17T09:52:13;6.97;;;3.80;;
47153;SDS011;32907;41.412;2.164;2023-03-17T09:54:45;12.98;;;4.30;;
47153;SDS011;32907;41.412;2.164;2023-03-17T09:57:32;16.52;;;6.03;;
47153;SDS011;32907;41.412;2.164;2023-03-17T10:00:12;11.63;;;4.80;;
47153;SDS011;32907;41.412;2.164;2023-03-17T10:02:45;15.05;;;4.75;;
47153;SDS011;32907;41.412;2.164;2023-03-17T10:05:18;10.60;;;4.65;;
47153;SDS011;32907;41.412;2.164;2023-03-17T10:16:50;13.40;;;5.65;;
47153;SDS011;32907;41.412;2.164;2023-03-17T10:22:20;12.82;;;5.90;;
47153;SDS011;32907;41.412;2.164;2023-03-17T10:24:52;10.90;;;5.53;;
47153;SDS011;32907;41.412;2.164;2023-03-17T10:27:24;10.23;;;5.00;;
47153;SDS011;32907;41.412;2.164;2023-03-17T10:29:54;8.65;;;4.38;;
47153;SDS011;32907;41.412;2.164;2023-03-17T10:32:23;13.77;;;5.00;;
47153;SDS011;32907;41.412;2.164;2023-03-17T10:34:53;11.43;;;4.05;;
47153;SDS011;32907;41.412;2.164;2023-03-17T10:37:22;8.70;;;3.47;;
47153;SDS011;32907;41.412;2.164;2023-03-17T10:39:52;8.20;;;2.65;;
47153;SDS011;32907;41.412;2.164;2023-03-17T10:42:25;9.85;;;3.40;;
47153;SDS011;32907;41.412;2.164;2023-03-17T10:47:57;9.07;;;2.83;;
47153;SDS011;32907;41.412;2.164;2023-03-17T10:50:29;12.95;;;3.38;;
47153;SDS011;32907;41.412;2.164;2023-03-17T10:53:04;11.45;;;3.50;;
47153;SDS011;32907;41.412;2.164;2023-03-17T10:58:18;15.48;;;3.42;;
47153;SDS011;32907;41.412;2.164;2023-03-17T11:00:57;7.85;;;3.10;;
47153;SDS011;32907;41.412;2.164;2023-03-17T11:03:34;8.80;;;3.83;;
47153;SDS011;32907;41.412;2.164;2023-03-17T11:06:07;10.88;;;3.83;;
47153;SDS011;32907;41.412;2.164;2023-03-17T11:08:41;9.77;;;3.55;;
47153;SDS011;32907;41.412;2.164;2023-03-17T11:14:03;14.50;;;3.55;;
47153;SDS011;32907;41.412;2.164;2023-03-17T11:22:24;9.10;;;3.67;;
47153;SDS011;32907;41.412;2.164;2023-03-17T11:25:07;10.57;;;2.72;;
47153;SDS011;32907;41.412;2.164;2023-03-17T11:46:36;13.50;;;4.07;;
47153;SDS011;32907;41.412;2.164;2023-03-17T11:54:41;9.18;;;3.15;;
47153;SDS011;32907;41.412;2.164;2023-03-17T11:57:28;16.25;;;3.45;;
47153;SDS011;32907;41.412;2.164;2023-03-17T12:00:05;8.82;;;3.33;;
47153;SDS011;32907;41.412;2.164;2023-03-17T12:02:47;11.30;;;3.55;;
47153;SDS011;32907;41.412;2.164;2023-03-17T12:05:23;12.13;;;4.27;;
47153;SDS011;32907;41.412;2.164;2023-03-17T12:10:36;10.23;;;4.00;;
47153;SDS011;32907;41.412;2.164;2023-03-17T12:13:16;10.40;;;4.00;;
47153;SDS011;32907;41.412;2.164;2023-03-17T12:15:51;9.95;;;3.92;;
47153;SDS011;32907;41.412;2.164;2023-03-17T12:18:27;10.83;;;3.50;;
47153;SDS011;32907;41.412;2.164;2023-03-17T12:20:59;10.68;;;3.53;;
47153;SDS011;32907;41.412;2.164;2023-03-17T12:26:42;15.18;;;5.10;;
47153;SDS011;32907;41.412;2.164;2023-03-17T12:29:42;17.65;;;4.93;;
47153;SDS011;32907;41.412;2.164;2023-03-17T12:32:20;12.40;;;3.50;;
47153;SDS011;32907;41.412;2.164;2023-03-17T12:37:26;14.60;;;3.97;;
47153;SDS011;32907;41.412;2.164;2023-03-17T12:40:00;9.50;;;3.83;;
47153;SDS011;32907;41.412;2.164;2023-03-17T12:45:30;11.65;;;3.80;;
47153;SDS011;32907;41.412;2.164;2023-03-17T12:53:40;16.75;;;6.15;;
47153;SDS011;32907;41.412;2.164;2023-03-17T12:56:19;13.43;;;6.45;;
47153;SDS011;32907;41.412;2.164;2023-03-17T12:58:52;13.95;;;7.05;;
47153;SDS011;32907;41.412;2.164;2023-03-17T13:01:28;19.75;;;8.93;;
47153;SDS011;32907;41.412;2.164;2023-03-17T13:04:12;15.20;;;8.65;;
47153;SDS011;32907;41.412;2.164;2023-03-17T13:12:04;16.30;;;5.60;;
47153;SDS011;32907;41.412;2.164;2023-03-17T13:14:43;12.27;;;5.60;;
47153;SDS011;32907;41.412;2.164;2023-03-17T13:41:12;17.80;;;10.80;;
47153;SDS011;32907;41.412;2.164;2023-03-17T13:43:56;22.38;;;13.68;;
47153;SDS011;32907;41.412;2.164;2023-03-17T13:56:58;19.08;;;9.45;;
47153;SDS011;32907;41.412;2.164;2023-03-17T14:02:48;19.73;;;7.95;;
47153;SDS011;32907;41.412;2.164;2023-03-17T14:05:21;15.75;;;7.00;;
47153;SDS011;32907;41.412;2.164;2023-03-17T14:07:57;14.75;;;5.35;;
47153;SDS011;32907;41.412;2.164;2023-03-17T14:10:29;14.30;;;5.70;;
47153;SDS011;32907;41.412;2.164;2023-03-17T14:13:01;12.35;;;5.50;;
47153;SDS011;32907;41.412;2.164;2023-03-17T14:15:33;14.32;;;6.05;;
47153;SDS011;32907;41.412;2.164;2023-03-17T14:18:15;13.82;;;5.78;;
47153;SDS011;32907;41.412;2.164;2023-03-17T14:20:52;15.40;;;4.68;;
47153;SDS011;32907;41.412;2.164;2023-03-17T14:23:21;11.32;;;3.85;;
47153;SDS011;32907;41.412;2.164;2023-03-17T14:25:50;12.02;;;4.63;;
47153;SDS011;32907;41.412;2.164;2023-03-17T14:28:28;13.73;;;4.65;;
47153;SDS011;32907;41.412;2.164;2023-03-17T14:31:01;12.25;;;3.83;;
47153;SDS011;32907;41.412;2.164;2023-03-17T14:33:36;13.30;;;4.75;;
47153;SDS011;32907;41.412;2.164;2023-03-17T14:36:08;10.48;;;4.72;;
47153;SDS011;32907;41.412;2.164;2023-03-17T14:38:50;9.32;;;3.72;;
47153;SDS011;32907;41.412;2.164;2023-03-17T14:41:21;9.68;;;3.55;;
47153;SDS011;32907;41.412;2.164;2023-03-17T14:43:52;8.88;;;3.63;;
47153;SDS011;32907;41.412;2.164;2023-03-17T14:46:28;11.18;;;3.42;;
47153;SDS011;32907;41.412;2.164;2023-03-17T14:49:02;10.15;;;3.58;;
47153;SDS011;32907;41.412;2.164;2023-03-17T14:51:40;7.72;;;2.50;;
47153;SDS011;32907;41.412;2.164;2023-03-17T14:54:17;18.38;;;5.03;;
47153;SDS011;32907;41.412;2.164;2023-03-17T14:56:52;11.93;;;3.80;;
47153;SDS011;32907;41.412;2.164;2023-03-17T14:59:29;14.38;;;3.55;;
47153;SDS011;32907;41.412;2.164;2023-03-17T15:02:02;18.10;;;4.00;;
47153;SDS011;32907;41.412;2.164;2023-03-17T15:05:02;14.15;;;3.70;;
47153;SDS011;32907;41.412;2.164;2023-03-17T15:07:49;16.55;;;4.10;;
47153;SDS011;32907;41.412;2.164;2023-03-17T15:10:21;11.75;;;3.78;;
47153;SDS011;32907;41.412;2.164;2023-03-17T15:13:00;14.43;;;4.38;;
47153;SDS011;32907;41.412;2.164;2023-03-17T15:15:33;16.98;;;5.25;;
47153;SDS011;32907;41.412;2.164;2023-03-17T15:18:14;20.00;;;4.53;;
47153;SDS011;32907;41.412;2.164;2023-03-17T15:20:46;13.02;;;4.38;;
47153;SDS011;32907;41.412;2.164;2023-03-17T15:23:18;9.85;;;3.88;;
47153;SDS011;32907;41.412;2.164;2023-03-17T15:25:51;14.32;;;4.35;;
47153;SDS011;32907;41.412;2.164;2023-03-17T15:28:27;10.30;;;3.75;;
47153;SDS011;32907;41.412;2.164;2023-03-17T15:30:58;14.02;;;4.65;;
47153;SDS011;32907;41.412;2.164;2023-03-17T15:33:38;18.13;;;4.95;;
47153;SDS011;32907;41.412;2.164;2023-03-17T15:36:08;11.48;;;4.07;;
47153;SDS011;32907;41.412;2.164;2023-03-17T15:38:57;14.48;;;3.88;;
47153;SDS011;32907;41.412;2.164;2023-03-17T15:41:25;14.63;;;3.63;;
47153;SDS011;32907;41.412;2.164;2023-03-17T15:43:53;16.42;;;3.83;;
47153;SDS011;32907;41.412;2.164;2023-03-17T15:46:25;14.20;;;4.28;;
47153;SDS011;32907;41.412;2.164;2023-03-17T15:49:00;10.73;;;3.55;;
47153;SDS011;32907;41.412;2.164;2023-03-17T15:51:28;7.95;;;2.90;;
47153;SDS011;32907;41.412;2.164;2023-03-17T15:53:58;10.30;;;4.30;;
47153;SDS011;32907;41.412;2.164;2023-03-17T15:56:25;12.05;;;3.60;;
47153;SDS011;32907;41.412;2.164;2023-03-17T15:58:55;9.93;;;3.13;;
47153;SDS011;32907;41.412;2.164;2023-03-17T16:01:22;10.10;;;3.33;;
47153;SDS011;32907;41.412;2.164;2023-03-17T16:03:54;11.18;;;3.67;;
47153;SDS011;32907;41.412;2.164;2023-03-17T16:06:21;13.77;;;4.15;;
47153;SDS011;32907;41.412;2.164;2023-03-17T16:08:50;13.80;;;4.53;;
47153;SDS011;32907;41.412;2.164;2023-03-17T16:11:19;9.05;;;3.85;;
47153;SDS011;32907;41.412;2.164;2023-03-17T16:13:55;15.95;;;4.03;;
47153;SDS011;32907;41.412;2.164;2023-03-17T16:19:15;14.02;;;4.47;;
47153;SDS011;32907;41.412;2.164;2023-03-17T16:21:50;31.55;;;16.48;;
47153;SDS011;32907;41.412;2.164;2023-03-17T16:24:18;38.63;;;25.38;;
47153;SDS011;32907;41.412;2.164;2023-03-17T16:26:49;30.83;;;20.42;;
47153;SDS011;32907;41.412;2.164;2023-03-17T16:29:18;29.10;;;15.13;;
47153;SDS011;32907;41.412;2.164;2023-03-17T16:31:48;24.63;;;11.73;;
47153;SDS011;32907;41.412;2.164;2023-03-17T16:34:18;19.70;;;9.55;;
47153;SDS011;32907;41.412;2.164;2023-03-17T16:36:48;20.13;;;8.68;;
47153;SDS011;32907;41.412;2.164;2023-03-17T16:39:18;18.88;;;7.07;;
47153;SDS011;32907;41.412;2.164;2023-03-17T16:41:52;17.08;;;5.50;;
47153;SDS011;32907;41.412;2.164;2023-03-17T16:44:24;14.13;;;4.70;;
47153;SDS011;32907;41.412;2.164;2023-03-17T16:46:52;11.55;;;4.13;;
47153;SDS011;32907;41.412;2.164;2023-03-17T16:49:20;11.82;;;3.67;;
47153;SDS011;32907;41.412;2.164;2023-03-17T16:51:49;12.07;;;3.13;;
47153;SDS011;32907;41.412;2.164;2023-03-17T16:54:17;14.25;;;3.28;;
47153;SDS011;32907;41.412;2.164;2023-03-17T16:56:45;13.30;;;3.40;;
47153;SDS011;32907;41.412;2.164;2023-03-17T16:59:17;11.98;;;3.22;;
47153;SDS011;32907;41.412;2.164;2023-03-17T17:01:47;8.85;;;3.15;;
47153;SDS011;32907;41.412;2.164;2023-03-17T17:04:16;11.10;;;2.88;;
47153;SDS011;32907;41.412;2.164;2023-03-17T17:06:43;13.55;;;3.13;;
47153;SDS011;32907;41.412;2.164;2023-03-17T17:09:11;9.55;;;3.22;;
47153;SDS011;32907;41.412;2.164;2023-03-17T17:11:39;12.20;;;3.70;;
47153;SDS011;32907;41.412;2.164;2023-03-17T17:14:07;13.05;;;3.55;;
47153;SDS011;32907;41.412;2.164;2023-03-17T17:16:35;15.85;;;4.55;;